Atlantic Osprey — CFH8950 — position and weather

sailwx.info

Track history (hours):
 
Tides and Currents Weather Stations Pressure Air Temp Water Temp Dewpoint Dewpoint Depression Visibility Wind Speed Wind Dir Waves Ship Positions

Atlantic Osprey

Last reported at 2015-Jan-26 16:30 UTC. Time now 2015-Jan-28 12:06 UTC.
Position N 47°33' W 052°32'.

Length 3 m; draft 6.6 m.

Type: Tug. MMSI: 316004850.

Date/timePositionNaut miles runAvg speedWind from/ knotsBaromVisibWave heightAir tempDewpointWater temp
2015-Jan-26 16:30N 47°33' W 052°32'7 5.2
2015-Jan-26 15:07N 47°34' W 052°42'0 0.0
2015-Jan-26 14:26N 47°34' W 052°42'0 0.0
2015-Jan-26 13:15N 47°34' W 052°42'0 0.0
2015-Jan-26 12:15N 47°34' W 052°42'0 0.1
2015-Jan-26 11:33N 47°34' W 052°42'0 0.2
2015-Jan-26 10:11N 47°34' W 052°42'0 0.0
2015-Jan-26 09:29N 47°34' W 052°42'0 0.0
2015-Jan-26 08:29N 47°34' W 052°42'0 0.0
2015-Jan-26 07:31N 47°34' W 052°42'0 0.0
2015-Jan-26 06:28N 47°34' W 052°42'0 0.0
2015-Jan-26 05:26N 47°34' W 052°42'0 0.0
2015-Jan-26 03:14N 47°34' W 052°42'0 0.0
2015-Jan-26 02:28N 47°34' W 052°42'0 0.0
2015-Jan-26 01:32N 47°34' W 052°42'0 0.0
2015-Jan-26 00:33N 47°34' W 052°42'0 0.0
2015-Jan-25 22:31N 47°34' W 052°42'0 0.0
2015-Jan-25 21:09N 47°34' W 052°42'0 0.0
2015-Jan-25 19:17N 47°34' W 052°42'0 0.0
2015-Jan-25 18:28N 47°34' W 052°42'0 0.0
2015-Jan-25 17:28N 47°34' W 052°42'0 0.0
2015-Jan-25 16:29N 47°34' W 052°42'0 0.0
2015-Jan-25 15:30N 47°34' W 052°42'0 0.0
2015-Jan-25 14:29N 47°34' W 052°42'0 0.0
2015-Jan-25 13:32N 47°34' W 052°42'0 0.0
2015-Jan-25 12:29N 47°34' W 052°42'0 0.0
2015-Jan-25 11:25N 47°34' W 052°42'2 1.8
2015-Jan-25 10:19N 47°34' W 052°39'6 7.5
2015-Jan-25 09:30N 47°33' W 052°30'7 7.6
2015-Jan-25 08:33N 47°32' W 052°19'8 7.8
2015-Jan-25 07:33N 47°30' W 052°08'  
2015-Jan-21 23:30N 47°33' W 052°30'8 9.8
2015-Jan-21 22:42N 47°34' W 052°42'0 0.0
2015-Jan-21 22:14N 47°34' W 052°42'0 0.0
2015-Jan-21 21:26N 47°34' W 052°42'0 0.0
2015-Jan-21 20:27N 47°34' W 052°42'0 0.0
2015-Jan-21 19:22N 47°34' W 052°42'0 0.3
2015-Jan-21 18:28N 47°34' W 052°42'0 0.0
2015-Jan-21 17:31N 47°34' W 052°42'0 0.0
2015-Jan-21 16:33N 47°34' W 052°42'0 0.0
2015-Jan-21 15:29N 47°34' W 052°42'0 0.0
2015-Jan-21 14:31N 47°34' W 052°42'0 0.0
2015-Jan-21 13:08N 47°34' W 052°42'0 0.0
2015-Jan-21 11:26N 47°34' W 052°42'0 0.0
2015-Jan-21 10:17N 47°34' W 052°42'0 0.0
2015-Jan-21 09:18N 47°34' W 052°42'0 0.0
2015-Jan-21 08:26N 47°34' W 052°42'0 0.0
2015-Jan-21 07:26N 47°34' W 052°42'0 0.0
2015-Jan-21 05:25N 47°34' W 052°42'0 0.0
2015-Jan-21 03:13N 47°34' W 052°42'0 0.0
2015-Jan-21 02:25N 47°34' W 052°42'0 0.0
2015-Jan-21 01:30N 47°34' W 052°42'0 0.0
2015-Jan-21 00:29N 47°34' W 052°42'0 0.0
2015-Jan-20 23:29N 47°34' W 052°42'0 0.0
2015-Jan-20 22:31N 47°34' W 052°42'0 0.0
2015-Jan-20 21:30N 47°34' W 052°42'0 0.3
2015-Jan-20 20:03N 47°34' W 052°42'0 0.0
2015-Jan-20 19:31N 47°34' W 052°42'6 6.4
2015-Jan-20 18:30N 47°33' W 052°32'  
Track history (hours):
 
Tides and Currents Weather Stations Pressure Air Temp Water Temp Dewpoint Dewpoint Depression Visibility Wind Speed Wind Dir Waves Ship Positions

Atlantic Osprey

Last reported at 2015-Jan-26 16:30 UTC. Time now 2015-Jan-28 12:06 UTC.
Position N 47°33' W 052°32'.

Length 3 m; draft 6.6 m.

Type: Tug. MMSI: 316004850.

Date/timePositionNaut miles runAvg speedWind from/ knotsBaromVisibWave heightAir tempDewpointWater temp
2015-Jan-26 16:30N 47°33' W 052°32'7 5.2
2015-Jan-26 15:07N 47°34' W 052°42'0 0.0
2015-Jan-26 14:26N 47°34' W 052°42'0 0.0
2015-Jan-26 13:15N 47°34' W 052°42'0 0.0
2015-Jan-26 12:15N 47°34' W 052°42'0 0.1
2015-Jan-26 11:33N 47°34' W 052°42'0 0.2
2015-Jan-26 10:11N 47°34' W 052°42'0 0.0
2015-Jan-26 09:29N 47°34' W 052°42'0 0.0
2015-Jan-26 08:29N 47°34' W 052°42'0 0.0
2015-Jan-26 07:31N 47°34' W 052°42'0 0.0
2015-Jan-26 06:28N 47°34' W 052°42'0 0.0
2015-Jan-26 05:26N 47°34' W 052°42'0 0.0
2015-Jan-26 03:14N 47°34' W 052°42'0 0.0
2015-Jan-26 02:28N 47°34' W 052°42'0 0.0
2015-Jan-26 01:32N 47°34' W 052°42'0 0.0
2015-Jan-26 00:33N 47°34' W 052°42'0 0.0
2015-Jan-25 22:31N 47°34' W 052°42'0 0.0
2015-Jan-25 21:09N 47°34' W 052°42'0 0.0
2015-Jan-25 19:17N 47°34' W 052°42'0 0.0
2015-Jan-25 18:28N 47°34' W 052°42'0 0.0
2015-Jan-25 17:28N 47°34' W 052°42'0 0.0
2015-Jan-25 16:29N 47°34' W 052°42'0 0.0
2015-Jan-25 15:30N 47°34' W 052°42'0 0.0
2015-Jan-25 14:29N 47°34' W 052°42'0 0.0
2015-Jan-25 13:32N 47°34' W 052°42'0 0.0
2015-Jan-25 12:29N 47°34' W 052°42'0 0.0
2015-Jan-25 11:25N 47°34' W 052°42'2 1.8
2015-Jan-25 10:19N 47°34' W 052°39'6 7.5
2015-Jan-25 09:30N 47°33' W 052°30'7 7.6
2015-Jan-25 08:33N 47°32' W 052°19'8 7.8
2015-Jan-25 07:33N 47°30' W 052°08'  
2015-Jan-21 23:30N 47°33' W 052°30'8 9.8
2015-Jan-21 22:42N 47°34' W 052°42'0 0.0
2015-Jan-21 22:14N 47°34' W 052°42'0 0.0
2015-Jan-21 21:26N 47°34' W 052°42'0 0.0
2015-Jan-21 20:27N 47°34' W 052°42'0 0.0
2015-Jan-21 19:22N 47°34' W 052°42'0 0.3
2015-Jan-21 18:28N 47°34' W 052°42'0 0.0
2015-Jan-21 17:31N 47°34' W 052°42'0 0.0
2015-Jan-21 16:33N 47°34' W 052°42'0 0.0
2015-Jan-21 15:29N 47°34' W 052°42'0 0.0
2015-Jan-21 14:31N 47°34' W 052°42'0 0.0
2015-Jan-21 13:08N 47°34' W 052°42'0 0.0
2015-Jan-21 11:26N 47°34' W 052°42'0 0.0
2015-Jan-21 10:17N 47°34' W 052°42'0 0.0
2015-Jan-21 09:18N 47°34' W 052°42'0 0.0
2015-Jan-21 08:26N 47°34' W 052°42'0 0.0
2015-Jan-21 07:26N 47°34' W 052°42'0 0.0
2015-Jan-21 05:25N 47°34' W 052°42'0 0.0
2015-Jan-21 03:13N 47°34' W 052°42'0 0.0
2015-Jan-21 02:25N 47°34' W 052°42'0 0.0
2015-Jan-21 01:30N 47°34' W 052°42'0 0.0
2015-Jan-21 00:29N 47°34' W 052°42'0 0.0
2015-Jan-20 23:29N 47°34' W 052°42'0 0.0
2015-Jan-20 22:31N 47°34' W 052°42'0 0.0
2015-Jan-20 21:30N 47°34' W 052°42'0 0.3
2015-Jan-20 20:03N 47°34' W 052°42'0 0.0
2015-Jan-20 19:31N 47°34' W 052°42'6 6.4
2015-Jan-20 18:30N 47°33' W 052°32'  

Dump ship's entire track history